createdAt,value
2023-02-11T00:02:24.286Z,99578.25
2023-02-11T00:05:26.234Z,99572.81
2023-02-11T00:08:28.675Z,99575.38
2023-02-11T00:11:30.729Z,99556.53
2023-02-11T00:14:32.695Z,99543.91
2023-02-11T00:17:34.657Z,99571.13
2023-02-11T00:20:39.226Z,99570.75
2023-02-11T00:23:41.796Z,99565.75
2023-02-11T00:26:43.783Z,99563.41
2023-02-11T00:29:45.836Z,99566.38
2023-02-11T00:32:47.774Z,99559.84
2023-02-11T00:35:50.151Z,99570.88
2023-02-11T00:38:55.268Z,99560.66
2023-02-11T00:41:58.120Z,99558.91
2023-02-11T00:45:00.085Z,99552.81
2023-02-11T00:48:02.080Z,99556.88
2023-02-11T00:51:04.483Z,99548.44
2023-02-11T00:54:06.549Z,99549.13
2023-02-11T00:57:08.484Z,99558.63
2023-02-11T01:00:14.059Z,99555.28
2023-02-11T01:03:16.175Z,99560.94
2023-02-11T01:06:18.990Z,99543.41
2023-02-11T01:09:21.345Z,99513.44
2023-02-11T01:12:23.580Z,99563.00
2023-02-11T01:15:26.049Z,99561.66
2023-02-11T01:18:28.206Z,99547.66
2023-02-11T01:21:30.248Z,99549.19
2023-02-11T01:24:32.359Z,99503.88
2023-02-11T01:27:35.054Z,99547.50
2023-02-11T01:30:37.048Z,99553.63
2023-02-11T01:33:39.173Z,99561.09
2023-02-11T01:36:42.073Z,99517.75
2023-02-11T01:39:44.129Z,99498.03
2023-02-11T01:42:49.433Z,99535.00
2023-02-11T01:45:56.022Z,99531.91
2023-02-11T01:49:05.412Z,99534.84
2023-02-11T01:52:13.029Z,99533.19
2023-02-11T01:55:34.239Z,99527.94
2023-02-11T01:58:41.726Z,99511.00
2023-02-11T02:01:49.289Z,99512.38
2023-02-11T02:05:02.757Z,99516.88
2023-02-11T02:08:44.458Z,99508.78
2023-02-11T02:11:46.391Z,99508.88
2023-02-11T02:14:48.973Z,99512.72
2023-02-11T02:18:24.730Z,99504.53
2023-02-11T02:22:04.248Z,99496.50
2023-02-11T02:25:12.935Z,99494.13
2023-02-11T02:28:49.926Z,99483.88
2023-02-11T02:32:10.466Z,99488.50
2023-02-11T02:35:24.647Z,99478.81
2023-02-11T02:38:41.044Z,99474.91
2023-02-11T02:41:44.297Z,99468.31
2023-02-11T02:44:53.555Z,99399.22
2023-02-11T02:47:56.021Z,99458.13
2023-02-11T02:51:06.650Z,99446.97
2023-02-11T02:54:39.145Z,99444.38
2023-02-11T02:58:05.559Z,99439.81
2023-02-11T03:01:22.234Z,99445.03
2023-02-11T03:04:40.299Z,99441.88
2023-02-11T03:07:52.407Z,99406.66
2023-02-11T03:10:56.943Z,99433.25
2023-02-11T03:14:04.125Z,99435.13
2023-02-11T03:17:08.772Z,99445.94
2023-02-11T03:20:14.800Z,99431.84
2023-02-11T03:23:28.480Z,99420.81
2023-02-11T03:27:07.043Z,99432.94
2023-02-11T03:30:22.865Z,99424.84
2023-02-11T03:33:29.407Z,99405.63
2023-02-11T03:36:51.823Z,99392.78
2023-02-11T03:39:59.667Z,99413.59
2023-02-11T03:43:09.161Z,99404.94
2023-02-11T03:46:15.339Z,99402.53
2023-02-11T03:49:21.655Z,99389.13
2023-02-11T03:52:26.649Z,99380.47
2023-02-11T03:55:30.256Z,99354.34
2023-02-11T03:58:32.189Z,99380.94
2023-02-11T04:01:34.436Z,99379.53
2023-02-11T04:04:36.429Z,99374.41
2023-02-11T04:07:38.372Z,99366.19
2023-02-11T04:10:40.308Z,99359.63
2023-02-11T04:13:42.268Z,99358.00
2023-02-11T04:16:44.366Z,99358.31
2023-02-11T04:19:46.377Z,99363.13
2023-02-11T04:22:48.409Z,99344.78
2023-02-11T04:25:51.316Z,99365.38
2023-02-11T04:28:53.387Z,99364.25
2023-02-11T04:31:55.909Z,99370.03
2023-02-11T04:34:57.961Z,99361.88
2023-02-11T04:37:59.846Z,99370.09
2023-02-11T04:41:01.826Z,99354.78
2023-02-11T04:44:04.233Z,99366.34
2023-02-11T04:47:06.982Z,99358.63
2023-02-11T04:50:09.471Z,99357.75
2023-02-11T04:53:11.387Z,99354.44
2023-02-11T04:56:13.336Z,99360.56
2023-02-11T04:59:15.662Z,99302.19
2023-02-11T05:02:17.709Z,99346.28
2023-02-11T05:05:19.761Z,99341.75
2023-02-11T05:08:21.818Z,99351.00
2023-02-11T05:11:25.811Z,99338.69
2023-02-11T05:14:27.800Z,99331.91
2023-02-11T05:17:29.768Z,99345.03
2023-02-11T05:20:31.787Z,99350.97
2023-02-11T05:23:34.379Z,99342.59
2023-02-11T05:26:36.491Z,99218.94
2023-02-11T05:29:38.728Z,99324.63
2023-02-11T05:32:40.826Z,99343.41
2023-02-11T05:35:42.830Z,99295.91
2023-02-11T05:38:44.753Z,99356.19
2023-02-11T05:41:46.716Z,99345.97
2023-02-11T05:44:50.630Z,99328.69
2023-02-11T05:47:52.752Z,99342.84
2023-02-11T05:50:54.752Z,99349.91
2023-02-11T05:53:56.658Z,99331.66
2023-02-11T05:56:58.647Z,99340.13
2023-02-11T06:00:00.664Z,99318.25
2023-02-11T06:03:04.569Z,99326.09
2023-02-11T06:06:10.636Z,99294.22
2023-02-11T06:09:12.642Z,99316.94
2023-02-11T06:12:14.558Z,99301.59
2023-02-11T06:15:16.612Z,99304.16
2023-02-11T06:18:18.529Z,99295.22
2023-02-11T06:21:20.495Z,99269.97
2023-02-11T06:24:47.647Z,99282.78
2023-02-11T06:27:44.623Z,99279.94
2023-02-11T06:30:46.652Z,99286.28
2023-02-11T06:33:50.318Z,99289.13
2023-02-11T06:36:52.286Z,99255.03
2023-02-11T06:39:54.273Z,99279.75
2023-02-11T06:42:56.282Z,99284.09
2023-02-11T06:45:58.298Z,99266.06
2023-02-11T06:49:00.157Z,99261.19
2023-02-11T06:52:02.184Z,99260.34
2023-02-11T06:55:04.364Z,99266.34
2023-02-11T06:58:06.667Z,99273.94
2023-02-11T07:01:11.417Z,99275.81
2023-02-11T07:04:14.917Z,99262.28
2023-02-11T07:07:16.870Z,99291.22
2023-02-11T07:10:18.949Z,99272.41
2023-02-11T07:13:20.868Z,99264.22
2023-02-11T07:16:23.457Z,99282.41
2023-02-11T07:19:25.473Z,99277.66
2023-02-11T07:22:27.599Z,99281.66
2023-02-11T07:25:29.657Z,99244.22
2023-02-11T07:28:31.947Z,99259.81
2023-02-11T07:31:34.251Z,99267.78
2023-02-11T07:34:36.291Z,99262.06
2023-02-11T07:37:38.337Z,99255.50
2023-02-11T07:40:40.478Z,99266.22
2023-02-11T07:43:42.930Z,99262.63
2023-02-11T07:46:45.780Z,99262.81
2023-02-11T07:49:47.860Z,99245.38
2023-02-11T07:52:49.836Z,99236.44
2023-02-11T07:55:52.099Z,99252.28
2023-02-11T07:58:55.370Z,99248.50
2023-02-11T08:01:57.521Z,99258.56
2023-02-11T08:04:59.512Z,99267.31
2023-02-11T08:08:01.480Z,99288.25
2023-02-11T08:11:08.668Z,99285.78
2023-02-11T08:14:11.917Z,99282.69
2023-02-11T08:17:13.842Z,99293.91
2023-02-11T08:20:15.943Z,99297.19
2023-02-11T08:23:17.901Z,99280.84
2023-02-11T08:26:25.880Z,99280.69
2023-02-11T08:29:27.893Z,99274.25
2023-02-11T08:32:29.904Z,99281.38
2023-02-11T08:35:36.598Z,99274.59
2023-02-11T08:38:38.755Z,99269.66
2023-02-11T08:41:40.841Z,99222.28
2023-02-11T08:44:43.432Z,99263.53
2023-02-11T08:47:45.408Z,99263.19
2023-02-11T08:50:47.518Z,99266.69
2023-02-11T08:53:50.872Z,99245.53
2023-02-11T08:56:52.798Z,99254.63
2023-02-11T08:59:54.843Z,99253.56
2023-02-11T09:02:56.790Z,99248.09
2023-02-11T09:05:58.764Z,99262.75
2023-02-11T09:09:00.696Z,99251.53
2023-02-11T09:12:02.660Z,99270.47
2023-02-11T09:15:04.942Z,99267.41
2023-02-11T09:18:07.579Z,99261.69
2023-02-11T09:21:10.447Z,99250.38
2023-02-11T09:24:12.519Z,99250.59
2023-02-11T09:27:14.560Z,99251.19
2023-02-11T09:30:16.517Z,99235.22
2023-02-11T09:33:18.610Z,99250.84
2023-02-11T09:36:31.873Z,99173.34
2023-02-11T09:39:33.854Z,99265.00
2023-02-11T09:42:53.967Z,99248.97
2023-02-11T09:45:56.683Z,99207.53
2023-02-11T09:49:00.279Z,99248.72
2023-02-11T09:52:07.716Z,99232.78
2023-02-11T09:55:27.548Z,99228.38
2023-02-11T09:58:39.159Z,99255.50
2023-02-11T10:02:04.891Z,99220.25
2023-02-11T10:05:13.920Z,99214.31
2023-02-11T10:09:12.871Z,99213.41
2023-02-11T10:12:39.201Z,99199.94
2023-02-11T10:16:15.069Z,99201.28
2023-02-11T10:20:01.259Z,99197.16
2023-02-11T10:23:13.593Z,99206.31
2023-02-11T10:26:18.669Z,99209.53
2023-02-11T10:29:42.294Z,99209.34
2023-02-11T10:32:52.868Z,99190.97
2023-02-11T10:35:54.911Z,99190.34
2023-02-11T10:39:10.755Z,99189.34
2023-02-11T10:42:14.597Z,99193.81
2023-02-11T10:45:27.835Z,99187.66
2023-02-11T10:48:53.019Z,99180.81
2023-02-11T10:52:14.326Z,99185.81
2023-02-11T10:55:21.306Z,99179.69
2023-02-11T10:58:45.850Z,99161.75
2023-02-11T11:02:00.775Z,99160.75
2023-02-11T11:05:16.420Z,99156.75
2023-02-11T11:08:19.925Z,99146.41
2023-02-11T11:11:26.413Z,99165.50
2023-02-11T11:14:29.761Z,99169.34
2023-02-11T11:17:31.837Z,99152.00
2023-02-11T11:20:36.324Z,99133.94
2023-02-11T11:23:40.122Z,99135.47
2023-02-11T11:26:45.352Z,99141.25
2023-02-11T11:29:50.265Z,99117.84
2023-02-11T11:32:52.705Z,99127.19
2023-02-11T11:36:21.263Z,99094.09
2023-02-11T11:39:27.994Z,99073.09
2023-02-11T11:42:34.948Z,99090.00
2023-02-11T11:45:37.063Z,99057.34
2023-02-11T11:48:42.699Z,99097.75
2023-02-11T11:51:55.224Z,99088.38
2023-02-11T11:55:22.601Z,99036.72
2023-02-11T11:58:24.826Z,99087.41
2023-02-11T12:01:45.739Z,99066.41
2023-02-11T12:04:54.057Z,99080.06
2023-02-11T12:08:29.335Z,99071.09
2023-02-11T12:11:38.390Z,99073.09
2023-02-11T12:14:43.010Z,99069.81
2023-02-11T12:18:13.085Z,99074.13
2023-02-11T12:21:43.085Z,99055.81
2023-02-11T12:24:45.191Z,99062.09
2023-02-11T12:28:02.310Z,99049.22
2023-02-11T12:31:19.514Z,99048.72
2023-02-11T12:34:24.893Z,99041.59
2023-02-11T12:37:26.975Z,99046.78
2023-02-11T12:40:59.455Z,99040.91
2023-02-11T12:44:01.886Z,99042.28
2023-02-11T12:47:29.106Z,98996.84
2023-02-11T12:50:34.274Z,99035.88
2023-02-11T12:54:10.436Z,99039.13
2023-02-11T12:57:37.447Z,99036.09
2023-02-11T13:00:47.864Z,99041.09
2023-02-11T13:04:20.262Z,99035.78
2023-02-11T13:07:37.282Z,99030.47
2023-02-11T13:10:43.729Z,99031.19
2023-02-11T13:13:46.335Z,99040.88
2023-02-11T13:16:51.190Z,99052.25
2023-02-11T13:20:03.936Z,99016.00
2023-02-11T13:23:32.180Z,99051.88
2023-02-11T13:26:58.289Z,99073.44
2023-02-11T13:30:22.770Z,99082.97
2023-02-11T13:33:36.307Z,99075.50
2023-02-11T13:36:39.875Z,99083.97
2023-02-11T13:39:42.040Z,99085.91
2023-02-11T13:42:53.330Z,99074.19
2023-02-11T13:46:01.400Z,99096.31
2023-02-11T13:49:03.643Z,99073.03
2023-02-11T13:52:18.921Z,99087.25
2023-02-11T13:55:24.507Z,99048.06
2023-02-11T13:58:30.062Z,99080.41
2023-02-11T14:02:12.693Z,99078.22
2023-02-11T14:05:50.398Z,99046.59
2023-02-11T14:09:11.980Z,99034.63
2023-02-11T14:12:24.397Z,99041.16
2023-02-11T14:15:38.351Z,99038.66
2023-02-11T14:18:52.853Z,99054.09
2023-02-11T14:22:12.146Z,99067.97
2023-02-11T14:25:23.243Z,99082.34
2023-02-11T14:28:34.595Z,99079.38
2023-02-11T14:31:55.522Z,99101.59
2023-02-11T14:35:37.829Z,99069.09
2023-02-11T14:38:52.414Z,99070.81
2023-02-11T14:41:55.573Z,99062.00
2023-02-11T14:45:04.835Z,99077.31
2023-02-11T14:48:17.957Z,99081.84
2023-02-11T14:51:29.136Z,99084.59
2023-02-11T14:54:32.578Z,99066.63
2023-02-11T14:57:35.776Z,99069.50
2023-02-11T15:01:14.104Z,99075.31
2023-02-11T15:04:40.766Z,99067.25
2023-02-11T15:07:52.438Z,99064.63
2023-02-11T15:10:55.996Z,99052.56
2023-02-11T15:14:07.234Z,99037.00
2023-02-11T15:17:10.096Z,99032.25
2023-02-11T15:20:26.288Z,99022.91
2023-02-11T15:23:31.026Z,99013.69
2023-02-11T15:26:34.068Z,99011.31
2023-02-11T15:29:40.069Z,99025.72
2023-02-11T15:32:45.405Z,99026.88
2023-02-11T15:35:47.845Z,98991.97
2023-02-11T15:39:29.449Z,99048.38
2023-02-11T15:42:43.887Z,99028.81
2023-02-11T15:46:02.494Z,99041.28
2023-02-11T15:49:06.756Z,99040.56
2023-02-11T15:52:09.937Z,99045.06
2023-02-11T15:55:14.954Z,99052.19
2023-02-11T15:58:18.699Z,99018.41
2023-02-11T16:01:34.280Z,99018.28
2023-02-11T16:04:38.322Z,99029.41
2023-02-11T16:07:48.080Z,98992.75
2023-02-11T16:11:02.692Z,99009.84
2023-02-11T16:14:22.367Z,99028.00
2023-02-11T16:17:31.064Z,99003.94
2023-02-11T16:20:34.955Z,99002.44
2023-02-11T16:23:45.428Z,98997.72
2023-02-11T16:26:53.274Z,99021.59
2023-02-11T16:29:57.168Z,99034.66
2023-02-11T16:32:59.942Z,99026.06
2023-02-11T16:36:20.039Z,99020.91
2023-02-11T16:39:23.370Z,98997.03
2023-02-11T16:42:26.067Z,99032.25
2023-02-11T16:45:29.040Z,99024.66
2023-02-11T16:48:33.536Z,99031.94
2023-02-11T16:51:41.446Z,99051.88
2023-02-11T16:54:44.710Z,99042.13
2023-02-11T16:57:47.680Z,99027.94
2023-02-11T17:00:52.052Z,98998.69
2023-02-11T17:03:56.628Z,99036.84
2023-02-11T17:06:59.909Z,99039.81
2023-02-11T17:10:03.018Z,99053.38
2023-02-11T17:13:06.035Z,99051.44
2023-02-11T17:16:21.045Z,99074.88
2023-02-11T17:19:24.805Z,99084.09
2023-02-11T17:22:27.811Z,99089.19
2023-02-11T17:25:30.900Z,99078.84
2023-02-11T17:28:34.873Z,99087.88
2023-02-11T17:31:38.087Z,99068.28
2023-02-11T17:34:41.411Z,99048.56
2023-02-11T17:37:43.971Z,99096.97
2023-02-11T17:40:46.933Z,99090.41
2023-02-11T17:43:49.940Z,99081.66
2023-02-11T17:46:54.151Z,99104.25
2023-02-11T17:49:57.607Z,99097.66
2023-02-11T17:53:01.246Z,99087.44
2023-02-11T17:56:06.686Z,99111.13
2023-02-11T17:59:11.803Z,99114.78
2023-02-11T18:02:15.012Z,99091.47
2023-02-11T18:05:17.922Z,99092.84
2023-02-11T18:08:22.266Z,99103.84
2023-02-11T18:11:45.230Z,99113.28
2023-02-11T18:14:47.983Z,99085.44
2023-02-11T18:17:50.990Z,99105.50
2023-02-11T18:21:02.128Z,99110.94
2023-02-11T18:24:07.048Z,99116.88
2023-02-11T18:27:10.172Z,99105.31
2023-02-11T18:30:18.363Z,99098.25
2023-02-11T18:33:21.358Z,99113.22
2023-02-11T18:36:24.115Z,99109.13
2023-02-11T18:39:26.819Z,99110.06
2023-02-11T18:42:30.001Z,99116.00
2023-02-11T18:45:33.179Z,99114.84
2023-02-11T18:48:39.776Z,99124.78
2023-02-11T18:51:42.473Z,99099.56
2023-02-11T18:54:47.269Z,99128.59
2023-02-11T18:57:50.306Z,99140.13
2023-02-11T19:00:53.302Z,99144.41
2023-02-11T19:04:00.038Z,99135.84
2023-02-11T19:07:05.171Z,99134.03
2023-02-11T19:10:09.515Z,99145.56
2023-02-11T19:13:14.293Z,99146.41
2023-02-11T19:16:20.594Z,99145.22
2023-02-11T19:19:26.022Z,99131.06
2023-02-11T19:22:29.375Z,99152.84
2023-02-11T19:25:32.830Z,99149.22
2023-02-11T19:28:38.109Z,99134.53
2023-02-11T19:31:41.734Z,99136.66
2023-02-11T19:34:45.120Z,99127.75
2023-02-11T19:37:48.515Z,99147.88
2023-02-11T19:40:57.264Z,99143.44
2023-02-11T19:44:02.238Z,99156.47
2023-02-11T19:47:05.596Z,99124.66
2023-02-11T19:50:10.948Z,99157.78
2023-02-11T19:53:14.096Z,99155.78
2023-02-11T19:56:19.766Z,99134.69
2023-02-11T19:59:23.936Z,99120.88
2023-02-11T20:02:26.868Z,99164.19
2023-02-11T20:05:29.801Z,99133.69
2023-02-11T20:08:35.345Z,99162.38
2023-02-11T20:11:40.138Z,99156.59
2023-02-11T20:14:43.306Z,99157.41
2023-02-11T20:17:47.626Z,99155.78
2023-02-11T20:20:50.642Z,99155.78
2023-02-11T20:23:54.580Z,99162.69
2023-02-11T20:26:57.893Z,99155.13
2023-02-11T20:30:01.123Z,99152.81
2023-02-11T20:33:05.643Z,99152.00
2023-02-11T20:36:15.536Z,99144.25
2023-02-11T20:39:19.353Z,99137.53
2023-02-11T20:42:23.418Z,99159.91
2023-02-11T20:45:27.486Z,99166.50
2023-02-11T20:48:31.041Z,99120.19
2023-02-11T20:51:34.925Z,99156.47
2023-02-11T20:54:39.197Z,99144.75
2023-02-11T20:57:41.892Z,99146.41
2023-02-11T21:00:46.387Z,99154.47
2023-02-11T21:04:05.798Z,99148.41
2023-02-11T21:07:08.747Z,99153.31
2023-02-11T21:10:11.713Z,99143.75
2023-02-11T21:13:14.509Z,99130.88
2023-02-11T21:16:25.215Z,99108.47
2023-02-11T21:19:28.561Z,99122.97
2023-02-11T21:22:31.974Z,99099.91
2023-02-11T21:25:35.292Z,99137.47
2023-02-11T21:28:40.890Z,99125.59
2023-02-11T21:31:44.348Z,99126.09
2023-02-11T21:34:48.252Z,99129.38
2023-02-11T21:37:51.094Z,99118.69
2023-02-11T21:40:55.327Z,99121.31
2023-02-11T21:43:58.190Z,99119.31
2023-02-11T21:47:01.094Z,99132.00
2023-02-11T21:50:03.942Z,99099.91
2023-02-11T21:53:07.127Z,99135.47
2023-02-11T21:56:13.166Z,99138.13
2023-02-11T21:59:16.975Z,99155.94
2023-02-11T22:02:19.434Z,99163.38
2023-02-11T22:05:22.188Z,99154.69
2023-02-11T22:08:24.267Z,99153.34
2023-02-11T22:11:26.443Z,99156.63
2023-02-11T22:14:31.261Z,99145.44
2023-02-11T22:17:34.785Z,99155.31
2023-02-11T22:20:36.923Z,99167.38
2023-02-11T22:23:40.099Z,99161.09
2023-02-11T22:26:42.165Z,99164.72
2023-02-11T22:29:44.782Z,99159.78
2023-02-11T22:32:47.615Z,99178.44
2023-02-11T22:35:49.771Z,99172.84
2023-02-11T22:38:52.453Z,99166.88
2023-02-11T22:41:56.578Z,99179.06
2023-02-11T22:44:58.567Z,99166.22
2023-02-11T22:48:00.690Z,99192.94
2023-02-11T22:51:19.584Z,99192.78
2023-02-11T22:54:21.713Z,99180.75
2023-02-11T22:57:23.765Z,99195.75
2023-02-11T23:00:26.661Z,99191.63
2023-02-11T23:03:29.292Z,99195.09
2023-02-11T23:06:31.668Z,99200.69
2023-02-11T23:09:33.647Z,99180.56
2023-02-11T23:12:35.592Z,99198.41
2023-02-11T23:15:42.340Z,99191.28
2023-02-11T23:18:46.516Z,99181.38
2023-02-11T23:21:51.124Z,99217.69
2023-02-11T23:24:53.301Z,99205.47
2023-02-11T23:27:55.215Z,99193.59
2023-02-11T23:30:57.281Z,99201.50
2023-02-11T23:33:59.642Z,99162.09
2023-02-11T23:37:01.552Z,99194.09
2023-02-11T23:40:04.430Z,99186.81
2023-02-11T23:43:06.380Z,99185.50
2023-02-11T23:46:09.331Z,99193.59
2023-02-11T23:49:11.413Z,99199.03
2023-02-11T23:52:13.376Z,99192.25
2023-02-11T23:55:15.397Z,99201.16
2023-02-11T23:58:17.429Z,99197.19
